Time;durP1;ratioP1;P1;durP2;ratioP2;P2;SDS_P1;SDS_P2;PMS_P1;PMS_P2;Temp;Humidity;BMP_temperature;BMP_pressure;BME280_temperature;BME280_humidity;BME280_pressure;Samples;Min_cycle;Max_cycle;Signal;HPM_P1;HPM_P2
2022/04/07 00:01:31;;;;;;;2.20;1.67;;;22.10;51.00;;;;;;5029531;28;20442;-88
2022/04/07 00:03:57;;;;;;;2.33;1.57;;;22.10;51.00;;;;;;5028364;28;20439;-88
2022/04/07 00:09:45;;;;;;;2.60;1.60;;;22.10;51.00;;;;;;5029396;28;20411;-88
2022/04/07 00:12:11;;;;;;;3.90;1.90;;;22.10;51.00;;;;;;5027718;28;20457;-88
2022/04/07 00:14:37;;;;;;;3.10;1.60;;;22.10;51.10;;;;;;5021536;28;20187;-88
2022/04/07 00:17:25;;;;;;;3.47;1.60;;;22.10;51.10;;;;;;5026828;28;20660;-88
2022/04/07 00:19:51;;;;;;;2.40;1.60;;;22.10;51.10;;;;;;5033239;28;20408;-88
2022/04/07 00:22:18;;;;;;;2.00;1.50;;;22.10;51.10;;;;;;5026989;28;20474;-88
2022/04/07 00:24:44;;;;;;;2.33;2.03;;;22.10;51.10;;;;;;5016464;28;20186;-88
2022/04/07 00:27:10;;;;;;;2.90;1.90;;;22.10;51.10;;;;;;5022807;28;20487;-88
2022/04/07 00:29:36;;;;;;;2.30;1.60;;;22.10;51.10;;;;;;5021703;28;20236;-88
2022/04/07 00:32:05;;;;;;;3.00;1.87;;;22.10;51.10;;;;;;5026824;28;20443;-88
2022/04/07 00:34:32;;;;;;;2.60;1.83;;;22.10;51.00;;;;;;5027225;28;20424;-88
2022/04/07 00:36:58;;;;;;;3.80;1.60;;;22.10;51.00;;;;;;5027018;28;20427;-88
2022/04/07 00:39:24;;;;;;;2.63;1.50;;;22.10;51.00;;;;;;5022766;28;20452;-88
2022/04/07 00:41:50;;;;;;;3.70;1.53;;;22.10;51.00;;;;;;5022043;28;20419;-88
2022/04/07 00:44:16;;;;;;;2.60;1.70;;;22.10;51.00;;;;;;5043309;28;20187;-88
2022/04/07 00:46:42;;;;;;;2.77;1.70;;;22.10;51.00;;;;;;5020574;28;20498;-88
2022/04/07 00:49:09;;;;;;;2.90;1.67;;;22.10;51.00;;;;;;5016784;28;20428;-88
2022/04/07 00:51:38;;;;;;;3.27;1.90;;;22.10;51.00;;;;;;5015159;28;20442;-87
2022/04/07 00:54:04;;;;;;;2.70;1.90;;;22.10;51.00;;;;;;5017836;28;20445;-88
2022/04/07 00:56:31;;;;;;;2.70;1.60;;;22.10;51.00;;;;;;5042454;28;20434;-89
2022/04/07 00:58:57;;;;;;;3.03;1.77;;;22.10;51.00;;;;;;5016492;28;20446;-88
2022/04/07 01:01:27;;;;;;;2.23;1.40;;;22.10;51.00;;;;;;5018425;28;20491;-88
2022/04/07 01:03:54;;;;;;;2.70;1.50;;;22.10;51.00;;;;;;5012314;28;20422;-88
2022/04/07 01:06:20;;;;;;;2.53;1.87;;;22.10;51.00;;;;;;5015741;28;20486;-88
2022/04/07 01:08:46;;;;;;;2.10;1.37;;;22.10;51.10;;;;;;5020465;28;20403;-88
2022/04/07 01:11:12;;;;;;;3.27;1.60;;;22.10;51.10;;;;;;5021630;28;20203;-88
2022/04/07 01:13:51;;;;;;;3.40;1.77;;;22.10;51.00;;;;;;5021514;28;20419;-88
2022/04/07 01:16:25;;;;;;;2.73;1.73;;;22.10;51.00;;;;;;5016404;28;20474;-88
2022/04/07 01:18:51;;;;;;;1.80;1.30;;;22.10;51.10;;;;;;5021464;28;20430;-88
2022/04/07 01:21:18;;;;;;;2.57;1.70;;;22.00;51.00;;;;;;5015449;28;20470;-88
2022/04/07 01:23:55;;;;;;;2.60;1.80;;;22.00;51.00;;;;;;5013901;28;20502;-88
2022/04/07 01:26:22;;;;;;;2.63;1.87;;;22.00;51.00;;;;;;5015138;28;20474;-88
2022/04/07 01:28:49;;;;;;;2.20;1.57;;;22.00;51.00;;;;;;5019462;28;20439;-88
2022/04/07 01:31:15;;;;;;;2.10;1.40;;;22.00;51.00;;;;;;5016620;28;20420;-88
2022/04/07 01:33:42;;;;;;;2.57;1.80;;;22.00;51.10;;;;;;5016982;28;20486;-88
2022/04/07 01:36:12;;;;;;;2.47;1.50;;;22.00;51.00;;;;;;5022443;28;20422;-88
2022/04/07 01:38:39;;;;;;;3.70;1.43;;;22.00;51.00;;;;;;5020387;28;20447;-88
2022/04/07 01:41:04;;;;;;;1.77;1.40;;;22.00;51.00;;;;;;5041681;28;20423;-88
2022/04/07 01:43:31;;;;;;;2.57;1.97;;;22.00;51.10;;;;;;5041580;28;20431;-88
2022/04/07 01:45:56;;;;;;;3.47;1.40;;;22.00;51.10;;;;;;5010015;28;20636;-88
2022/04/07 01:48:23;;;;;;;2.00;1.60;;;22.00;51.10;;;;;;5013002;28;20435;-88
2022/04/07 01:50:51;;;;;;;3.07;1.83;;;22.00;51.10;;;;;;5011546;28;20423;-88
2022/04/07 01:53:18;;;;;;;3.33;1.67;;;22.00;51.10;;;;;;5009890;28;20444;-88
2022/04/07 01:55:44;;;;;;;2.37;1.50;;;22.00;51.10;;;;;;5021086;28;20504;-88
2022/04/07 01:58:11;;;;;;;2.10;1.90;;;22.00;51.10;;;;;;5041268;28;20427;-88
2022/04/07 02:00:38;;;;;;;1.60;1.37;;;22.00;51.10;;;;;;5025776;28;20423;-88
2022/04/07 02:03:05;;;;;;;2.80;1.63;;;22.00;51.10;;;;;;5022778;28;20435;-88
2022/04/07 02:05:31;;;;;;;2.43;1.80;;;22.00;51.10;;;;;;5042533;28;20471;-88
2022/04/07 02:07:58;;;;;;;2.70;1.40;;;22.00;51.10;;;;;;5026505;28;20522;-88
2022/04/07 02:10:28;;;;;;;2.00;1.27;;;22.00;51.10;;;;;;5025355;28;20933;-88
2022/04/07 02:12:54;;;;;;;2.50;1.50;;;22.00;51.10;;;;;;5021854;28;20494;-88
2022/04/07 02:15:20;;;;;;;3.17;1.30;;;22.00;51.10;;;;;;5041243;28;20415;-88
2022/04/07 02:17:46;;;;;;;2.67;1.57;;;22.00;51.10;;;;;;5028692;28;20415;-88
2022/04/07 02:20:12;;;;;;;3.17;1.80;;;22.10;51.10;;;;;;5045552;28;20240;-88
2022/04/07 02:22:37;;;;;;;2.57;1.70;;;22.00;51.10;;;;;;5028912;28;20184;-88
2022/04/07 02:25:04;;;;;;;2.73;1.70;;;22.00;51.10;;;;;;5029192;28;20494;-88
2022/04/07 02:27:35;;;;;;;2.47;1.60;;;22.10;51.10;;;;;;5028477;28;20678;-88
2022/04/07 02:30:02;;;;;;;2.83;1.70;;;22.10;51.10;;;;;;5028825;28;20419;-88
2022/04/07 02:32:28;;;;;;;2.00;1.47;;;22.10;51.10;;;;;;5029092;28;20521;-88
2022/04/07 02:34:54;;;;;;;1.83;1.30;;;22.00;51.10;;;;;;5029882;28;20419;-88
2022/04/07 02:37:19;;;;;;;3.70;1.70;;;22.00;51.10;;;;;;5045648;28;20419;-88
2022/04/07 02:39:45;;;;;;;1.77;1.20;;;22.00;51.10;;;;;;5029921;28;20782;-88
2022/04/07 02:42:11;;;;;;;1.90;1.63;;;22.00;51.10;;;;;;5029349;28;20184;-88
2022/04/07 02:44:37;;;;;;;2.33;1.70;;;22.00;51.10;;;;;;5028932;28;20203;-88
2022/04/07 02:47:03;;;;;;;2.33;1.40;;;22.10;51.20;;;;;;5028475;28;20223;-87
2022/04/07 02:49:29;;;;;;;2.97;1.60;;;22.00;51.10;;;;;;5044624;28;20192;-88
2022/04/07 02:51:54;;;;;;;1.60;1.10;;;22.00;51.10;;;;;;5029044;28;20485;-88
2022/04/07 02:54:20;;;;;;;1.80;1.30;;;22.10;51.20;;;;;;5028333;28;20184;-88
2022/04/07 02:56:47;;;;;;;2.20;1.40;;;22.00;51.10;;;;;;5027816;28;20191;-88
2022/04/07 02:59:13;;;;;;;2.20;1.63;;;22.00;51.10;;;;;;5045171;28;20214;-88
2022/04/07 03:01:39;;;;;;;2.23;1.67;;;22.10;51.10;;;;;;5044577;28;20463;-88
2022/04/07 03:04:04;;;;;;;2.27;1.30;;;22.00;51.10;;;;;;5028980;28;20197;-88
2022/04/07 03:06:30;;;;;;;2.20;1.57;;;22.00;51.10;;;;;;5029792;28;20208;-88
2022/04/07 03:12:18;;;;;;;2.00;1.47;;;22.10;51.20;;;;;;5028782;28;20173;-88
2022/04/07 03:14:44;;;;;;;2.23;1.60;;;22.10;51.70;;;;;;5028158;28;20802;-88
2022/04/07 03:17:10;;;;;;;1.73;1.27;;;22.00;51.10;;;;;;5027918;28;20467;-88
2022/04/07 03:19:39;;;;;;;2.40;1.50;;;22.00;51.10;;;;;;5028526;28;20184;-87
2022/04/07 03:22:05;;;;;;;1.60;1.40;;;22.00;51.10;;;;;;5029395;28;20180;-88
2022/04/07 03:24:31;;;;;;;2.10;1.50;;;22.00;51.10;;;;;;5028592;28;20426;-88
2022/04/07 03:26:56;;;;;;;1.50;1.40;;;22.00;51.10;;;;;;5028975;28;20627;-88
2022/04/07 03:32:44;;;;;;;2.23;1.40;;;22.10;51.20;;;;;;5028526;28;20227;-88
2022/04/07 03:35:10;;;;;;;2.10;1.30;;;22.00;51.10;;;;;;5027286;28;20432;-88
2022/04/07 03:37:36;;;;;;;2.20;1.60;;;22.00;51.10;;;;;;5028205;28;20184;-87
2022/04/07 03:43:24;;;;;;;2.70;1.47;;;22.00;51.10;;;;;;5028616;28;20625;-87
2022/04/07 03:45:50;;;;;;;2.27;1.60;;;22.00;51.10;;;;;;5028382;28;20455;-88
2022/04/07 03:48:16;;;;;;;2.43;1.40;;;22.00;51.10;;;;;;5027208;28;20514;-87
2022/04/07 03:51:18;;;;;;;1.67;1.10;;;22.00;51.10;;;;;;5027750;28;20181;-88
2022/04/07 03:53:44;;;;;;;2.00;1.27;;;22.00;51.10;;;;;;5026707;28;20199;-88
2022/04/07 03:56:10;;;;;;;2.43;1.37;;;22.00;51.10;;;;;;5027562;28;20431;-88
2022/04/07 03:58:37;;;;;;;1.90;1.20;;;22.00;51.10;;;;;;5027501;28;20181;-88
2022/04/07 04:01:03;;;;;;;2.57;1.50;;;22.00;51.20;;;;;;5026880;28;20431;-88
2022/04/07 04:03:29;;;;;;;1.47;1.10;;;22.00;51.10;;;;;;5026781;28;20454;-88
2022/04/07 04:06:51;;;;;;;2.97;1.50;;;22.00;51.10;;;;;;5026853;28;20466;-88
2022/04/07 04:09:16;;;;;;;1.23;1.07;;;22.00;51.10;;;;;;5026936;28;20437;-88
2022/04/07 04:11:42;;;;;;;2.00;1.30;;;22.00;51.20;;;;;;5025246;28;20420;-88
2022/04/07 04:14:08;;;;;;;2.53;1.30;;;22.00;51.20;;;;;;5025197;28;20240;-88
2022/04/07 04:16:35;;;;;;;1.57;1.23;;;22.00;51.20;;;;;;5024710;28;20271;-88
2022/04/07 04:19:01;;;;;;;1.67;1.37;;;22.00;51.20;;;;;;5025345;28;20190;-88
2022/04/07 04:21:26;;;;;;;2.67;1.23;;;22.00;51.20;;;;;;5026275;28;20498;-88
2022/04/07 04:23:52;;;;;;;2.10;1.40;;;22.00;51.10;;;;;;5026260;28;20188;-88
2022/04/07 04:26:18;;;;;;;3.03;1.57;;;22.00;51.20;;;;;;5026045;28;20239;-88
2022/04/07 04:28:44;;;;;;;2.20;1.57;;;22.00;51.10;;;;;;5025716;28;20705;-88
2022/04/07 04:31:09;;;;;;;1.97;1.20;;;22.00;51.10;;;;;;5025559;28;20218;-89
2022/04/07 04:33:35;;;;;;;1.97;1.70;;;22.00;51.20;;;;;;5026674;28;20200;-88
2022/04/07 04:36:01;;;;;;;2.20;1.27;;;22.00;51.10;;;;;;5042245;28;20183;-88
2022/04/07 04:38:27;;;;;;;3.20;1.23;;;22.00;51.10;;;;;;5025912;28;20196;-88
2022/04/07 04:40:52;;;;;;;2.60;1.30;;;22.00;51.20;;;;;;5027127;28;20237;-88
2022/04/07 04:43:18;;;;;;;2.47;1.20;;;22.00;51.20;;;;;;5026243;28;20242;-88
2022/04/07 04:52:10;;;;;;;2.20;1.53;;;22.00;51.20;;;;;;5021760;28;20391;-88
2022/04/07 04:54:39;;;;;;;1.93;1.37;;;22.00;51.20;;;;;;5025721;28;20894;-87
2022/04/07 04:57:06;;;;;;;2.40;1.40;;;22.00;51.20;;;;;;5028143;28;20515;-87
2022/04/07 04:59:32;;;;;;;3.77;1.50;;;22.00;51.20;;;;;;5010540;28;20419;-88
2022/04/07 05:01:58;;;;;;;2.47;1.50;;;22.00;51.20;;;;;;5028085;28;20446;-87
2022/04/07 05:04:24;;;;;;;1.40;1.20;;;22.00;51.20;;;;;;5027511;28;20423;-88
2022/04/07 05:06:49;;;;;;;1.63;1.03;;;22.00;51.20;;;;;;5028014;28;20228;-87
2022/04/07 05:09:15;;;;;;;2.50;1.70;;;22.00;51.20;;;;;;5027323;28;20191;-88
2022/04/07 05:11:44;;;;;;;2.13;1.10;;;22.00;51.20;;;;;;5026867;28;20180;-89
2022/04/07 05:14:11;;;;;;;3.63;1.20;;;22.10;51.20;;;;;;5037863;28;20599;-87
2022/04/07 05:16:37;;;;;;;1.90;1.50;;;22.10;51.20;;;;;;5026917;28;20439;-87
2022/04/07 05:19:03;;;;;;;2.20;1.40;;;22.10;51.20;;;;;;5026323;28;20505;-88
2022/04/07 05:21:28;;;;;;;2.37;1.40;;;22.10;51.20;;;;;;5026912;28;20276;-87
2022/04/07 05:23:54;;;;;;;3.20;1.60;;;22.10;51.20;;;;;;5028360;28;20239;-87
2022/04/07 05:26:20;;;;;;;2.70;1.73;;;22.10;51.20;;;;;;5028905;28;20200;-87
2022/04/07 05:28:46;;;;;;;1.97;1.20;;;22.10;51.20;;;;;;5026772;28;20173;-87
2022/04/07 05:31:12;;;;;;;1.70;1.10;;;22.10;51.20;;;;;;5027158;28;20569;-87
2022/04/07 05:33:38;;;;;;;1.60;1.13;;;22.10;51.10;;;;;;5028302;28;20180;-87
2022/04/07 05:36:04;;;;;;;2.27;1.43;;;22.10;51.20;;;;;;5027668;28;20192;-87
2022/04/07 05:38:30;;;;;;;3.60;1.70;;;22.10;51.10;;;;;;5028070;28;20423;-87
2022/04/07 05:40:55;;;;;;;2.10;1.30;;;22.10;51.10;;;;;;5028280;28;20419;-87
2022/04/07 05:43:21;;;;;;;2.00;1.20;;;22.10;51.10;;;;;;5027842;28;20267;-87
2022/04/07 05:45:49;;;;;;;2.37;1.27;;;22.10;51.10;;;;;;5027165;28;20200;-86
2022/04/07 05:48:15;;;;;;;2.00;1.37;;;22.10;51.10;;;;;;5026992;28;20419;-87
2022/04/07 05:50:44;;;;;;;1.77;1.43;;;22.10;51.10;;;;;;5028233;28;20414;-87
2022/04/07 05:53:12;;;;;;;2.27;1.40;;;22.10;51.10;;;;;;5030084;28;20411;-87
2022/04/07 05:55:38;;;;;;;1.87;1.10;;;22.10;51.10;;;;;;5031175;28;20449;-87
2022/04/07 05:58:10;;;;;;;2.53;1.37;;;22.10;51.10;;;;;;5047020;28;20873;-87
2022/04/07 06:00:39;;;;;;;2.10;1.40;;;22.10;51.20;;;;;;5031038;28;20462;-85
2022/04/07 06:03:06;;;;;;;1.73;1.20;;;22.10;51.20;;;;;;5046677;28;20441;-86
2022/04/07 06:05:35;;;;;;;2.73;1.50;;;22.10;51.20;;;;;;5032293;28;20844;-86
2022/04/07 06:08:02;;;;;;;2.17;1.33;;;22.10;51.10;;;;;;5043712;28;20447;-86
2022/04/07 06:10:29;;;;;;;1.80;1.20;;;22.10;51.10;;;;;;5019652;28;20422;-86
2022/04/07 06:13:26;;;;;;;1.87;1.10;;;22.10;51.10;;;;;;5031142;28;20434;-86
2022/04/07 06:15:52;;;;;;;2.13;1.13;;;22.20;51.20;;;;;;5018394;28;20492;-86
2022/04/07 06:18:20;;;;;;;2.43;1.07;;;22.10;51.10;;;;;;5021506;28;20416;-86
2022/04/07 06:20:47;;;;;;;2.13;1.27;;;22.10;51.70;;;;;;5018992;28;20173;-86
2022/04/07 06:23:13;;;;;;;1.87;1.17;;;22.10;51.10;;;;;;5019012;28;20431;-86
2022/04/07 06:25:39;;;;;;;1.63;1.03;;;22.10;51.10;;;;;;5025416;28;20457;-87
2022/04/07 06:31:27;;;;;;;2.57;1.63;;;22.20;51.10;;;;;;5023852;28;20184;-87
2022/04/07 06:33:53;;;;;;;2.07;1.23;;;22.10;51.10;;;;;;5018684;28;20408;-85
2022/04/07 06:36:18;;;;;;;2.67;1.30;;;22.10;51.10;;;;;;5024253;28;20268;-87
2022/04/07 06:38:44;;;;;;;1.70;1.20;;;22.10;51.10;;;;;;5024520;28;20184;-87
2022/04/07 06:41:10;;;;;;;1.80;1.30;;;22.10;51.10;;;;;;5017715;28;20219;-87
2022/04/07 06:43:36;;;;;;;1.83;1.17;;;22.20;51.20;;;;;;5018579;28;20207;-87
2022/04/07 06:46:02;;;;;;;1.50;1.00;;;22.20;51.10;;;;;;5017802;28;20223;-87
2022/04/07 06:52:18;;;;;;;2.00;1.33;;;22.20;51.10;;;;;;5022608;28;20453;-87
2022/04/07 06:54:44;;;;;;;1.80;1.03;;;22.20;51.10;;;;;;5045605;28;20408;-87
2022/04/07 06:57:10;;;;;;;3.10;1.30;;;22.10;51.10;;;;;;5046372;28;20423;-85
2022/04/07 06:59:36;;;;;;;1.57;1.07;;;22.10;51.20;;;;;;5022430;28;20493;-86
2022/04/07 07:02:02;;;;;;;1.63;1.00;;;22.20;51.20;;;;;;5019311;28;20424;-86
2022/04/07 07:04:32;;;;;;;2.27;1.10;;;22.20;51.20;;;;;;5020994;28;20192;-87
2022/04/07 07:06:58;;;;;;;1.30;1.10;;;22.20;51.20;;;;;;5014270;28;20483;-86
2022/04/07 07:09:23;;;;;;;1.90;1.43;;;22.20;51.20;;;;;;5016681;28;20517;-87
2022/04/07 07:11:49;;;;;;;1.90;1.53;;;22.20;51.20;;;;;;5023438;28;20420;-87
2022/04/07 07:14:15;;;;;;;1.73;1.00;;;22.20;51.20;;;;;;5018781;28;20268;-86
2022/04/07 07:16:41;;;;;;;1.40;1.10;;;22.20;51.30;;;;;;5015854;28;20188;-87
2022/04/07 07:19:06;;;;;;;1.53;1.03;;;22.20;51.20;;;;;;5013700;28;20193;-86
2022/04/07 07:24:55;;;;;;;1.47;1.00;;;22.20;51.30;;;;;;5014893;28;20204;-88
2022/04/07 07:27:20;;;;;;;1.23;0.80;;;22.20;51.30;;;;;;5020488;28;20452;-88
2022/04/07 07:29:46;;;;;;;2.63;1.60;;;22.20;51.30;;;;;;5021995;28;20176;-88
2022/04/07 07:32:15;;;;;;;1.73;1.50;;;22.30;51.40;;;;;;5023376;28;20231;-88
2022/04/07 07:34:40;;;;;;;2.37;1.20;;;22.30;51.40;;;;;;5016212;28;20177;-90
2022/04/07 07:37:06;;;;;;;1.43;1.20;;;22.30;51.40;;;;;;5044417;28;20431;-89
2022/04/07 07:39:33;;;;;;;1.80;1.37;;;22.30;51.40;;;;;;5016064;28;20186;-89
2022/04/07 07:41:59;;;;;;;3.30;1.30;;;22.30;51.40;;;;;;5019841;28;20184;-89
2022/04/07 07:44:25;;;;;;;1.30;1.00;;;22.30;51.40;;;;;;5014464;28;20412;-89
2022/04/07 07:46:51;;;;;;;1.17;1.03;;;22.30;51.40;;;;;;5012043;28;20204;-88
2022/04/07 07:49:17;;;;;;;1.50;0.90;;;22.30;51.40;;;;;;5015615;28;20188;-89
2022/04/07 07:51:51;;;;;;;2.10;1.87;;;22.30;51.40;;;;;;5020276;28;20419;-87
2022/04/07 07:54:18;;;;;;;2.10;1.30;;;22.40;51.50;;;;;;5011760;28;20416;-89
2022/04/07 07:56:44;;;;;;;1.43;1.10;;;22.40;51.50;;;;;;5027302;28;20435;-89
2022/04/07 07:59:09;;;;;;;2.90;1.27;;;22.40;51.50;;;;;;5027300;28;20434;-88
2022/04/07 08:01:35;;;;;;;2.30;1.20;;;22.40;51.50;;;;;;5026265;28;20595;-89
2022/04/07 08:04:04;;;;;;;1.70;1.47;;;22.40;51.50;;;;;;5028831;28;20655;-89
2022/04/07 08:06:30;;;;;;;2.83;1.50;;;22.40;51.50;;;;;;5026606;28;20458;-89
2022/04/07 08:08:56;;;;;;;1.40;0.90;;;22.40;51.50;;;;;;5027561;28;20431;-89
2022/04/07 08:11:25;;;;;;;1.43;0.90;;;22.40;51.50;;;;;;5011440;28;20188;-89
2022/04/07 08:13:51;;;;;;;3.97;1.23;;;22.40;51.50;;;;;;5041818;28;20419;-88
2022/04/07 08:19:41;;;;;;;2.07;1.20;;;22.40;51.40;;;;;;5026751;28;20195;-89
2022/04/07 08:22:07;;;;;;;1.40;1.20;;;22.40;51.50;;;;;;5028069;28;20482;-89
2022/04/07 08:24:34;;;;;;;2.83;1.00;;;22.40;51.50;;;;;;5026745;28;20419;-89
2022/04/07 08:27:01;;;;;;;3.33;1.10;;;22.40;51.50;;;;;;5027480;28;20200;-89
2022/04/07 08:29:27;;;;;;;1.60;1.20;;;22.40;51.50;;;;;;5026598;28;20435;-88
2022/04/07 08:31:53;;;;;;;2.67;1.37;;;22.40;51.50;;;;;;5042162;28;20423;-89
2022/04/07 08:34:20;;;;;;;1.00;0.80;;;22.40;51.50;;;;;;5010194;28;20495;-89
2022/04/07 08:36:46;;;;;;;1.57;1.20;;;22.50;51.50;;;;;;5025577;28;20514;-88
2022/04/07 08:39:12;;;;;;;1.80;1.10;;;22.50;51.60;;;;;;5026954;28;20442;-89
2022/04/07 08:41:39;;;;;;;1.63;0.90;;;22.50;51.50;;;;;;5026030;28;20431;-89
2022/04/07 08:44:06;;;;;;;1.10;1.00;;;22.50;51.50;;;;;;5026622;28;20431;-89
2022/04/07 08:46:32;;;;;;;1.40;1.03;;;22.50;51.50;;;;;;5025964;28;20531;-88
2022/04/07 08:49:01;;;;;;;2.53;1.10;;;22.50;51.50;;;;;;5042474;28;20482;-89
2022/04/07 08:51:28;;;;;;;1.87;0.87;;;22.50;51.50;;;;;;5026857;28;20427;-89
2022/04/07 08:53:54;;;;;;;1.70;1.27;;;22.50;51.50;;;;;;5042436;28;20463;-89
2022/04/07 08:56:23;;;;;;;1.77;1.17;;;22.50;51.50;;;;;;5027182;28;20495;-88
2022/04/07 08:58:49;;;;;;;2.03;1.33;;;22.50;51.50;;;;;;5025851;28;20419;-89
2022/04/07 09:01:15;;;;;;;1.30;0.90;;;22.50;51.50;;;;;;5027440;28;20517;-89
2022/04/07 09:03:43;;;;;;;1.37;1.17;;;22.50;51.50;;;;;;5027387;28;20431;-88
2022/04/07 09:06:09;;;;;;;2.17;1.23;;;22.50;51.50;;;;;;5026928;28;20196;-89
2022/04/07 09:08:37;;;;;;;1.00;0.90;;;22.50;51.50;;;;;;5027958;28;20952;-89
2022/04/07 09:11:07;;;;;;;1.80;1.00;;;22.50;51.50;;;;;;5027905;28;20181;-88
2022/04/07 09:13:42;;;;;;;3.00;1.10;;;22.50;51.50;;;;;;5028219;28;20407;-88
2022/04/07 09:16:15;;;;;;;1.63;1.17;;;22.50;51.50;;;;;;5027386;28;20427;-88
2022/04/07 09:18:47;;;;;;;1.70;1.43;;;22.60;51.80;;;;;;5027525;28;20427;-88
2022/04/07 09:21:22;;;;;;;1.70;1.10;;;22.60;51.60;;;;;;5027369;28;20431;-88
2022/04/07 09:23:47;;;;;;;1.47;1.10;;;22.60;51.60;;;;;;5024638;28;22716;-89
2022/04/07 09:29:43;;;;;;;1.47;1.10;;;22.60;51.60;;;;;;5016467;28;20563;-88
2022/04/07 09:32:20;;;;;;;1.13;1.03;;;22.50;51.50;;;;;;5022675;28;20831;-87
2022/04/07 09:35:00;;;;;;;3.40;1.23;;;22.60;51.60;;;;;;5028170;28;20417;-88
2022/04/07 09:37:28;;;;;;;4.60;1.30;;;22.50;51.50;;;;;;5029662;28;20458;-87
2022/04/07 09:40:25;;;;;;;2.37;0.93;;;22.60;51.60;;;;;;5018745;28;20443;-87
2022/04/07 09:42:58;;;;;;;1.27;0.90;;;22.60;51.60;;;;;;5022697;28;20432;-88
2022/04/07 09:45:25;;;;;;;1.47;1.03;;;22.60;51.60;;;;;;5029885;28;20415;-87
2022/04/07 09:47:53;;;;;;;1.93;1.10;;;22.60;52.20;;;;;;5026178;28;20447;-88
2022/04/07 09:50:29;;;;;;;1.30;0.70;;;22.60;51.60;;;;;;5028445;28;20489;-87
2022/04/07 09:53:03;;;;;;;1.50;1.10;;;22.60;51.60;;;;;;5025692;28;20430;-88
2022/04/07 09:55:37;;;;;;;1.60;1.00;;;22.60;51.60;;;;;;5026952;28;20415;-89
2022/04/07 09:58:07;;;;;;;1.47;1.00;;;22.60;51.60;;;;;;5027844;28;20442;-89
2022/04/07 10:00:33;;;;;;;1.20;0.83;;;22.60;51.60;;;;;;5022583;28;20426;-89
2022/04/07 10:03:05;;;;;;;1.50;0.93;;;22.60;51.60;;;;;;5021642;28;20439;-88
2022/04/07 10:05:31;;;;;;;1.47;1.00;;;22.60;51.60;;;;;;5042423;28;20411;-88
2022/04/07 10:07:58;;;;;;;1.70;1.00;;;22.60;51.60;;;;;;5021215;28;20428;-88
2022/04/07 10:10:24;;;;;;;1.13;0.90;;;22.60;51.60;;;;;;5018169;28;20424;-87
2022/04/07 10:13:06;;;;;;;0.97;0.87;;;22.60;51.60;;;;;;5044092;28;20489;-88
2022/04/07 10:15:32;;;;;;;1.40;0.97;;;22.60;51.60;;;;;;5042611;28;20454;-87
2022/04/07 10:18:14;;;;;;;1.10;0.80;;;22.60;51.60;;;;;;5018472;28;20412;-87
2022/04/07 10:20:45;;;;;;;1.03;0.70;;;22.60;51.60;;;;;;5023215;28;20169;-88
2022/04/07 10:23:26;;;;;;;1.90;1.07;;;22.60;51.60;;;;;;5014906;28;20412;-88
2022/04/07 10:25:54;;;;;;;1.40;1.10;;;22.60;51.60;;;;;;5025875;28;20455;-87
2022/04/07 10:28:24;;;;;;;1.23;0.80;;;22.60;51.60;;;;;;5026567;28;20427;-87
2022/04/07 10:30:51;;;;;;;1.30;0.93;;;22.60;51.60;;;;;;5028948;28;20407;-89
2022/04/07 10:33:48;;;;;;;2.23;1.53;;;22.60;51.60;;;;;;5022788;28;20416;-87
2022/04/07 10:36:17;;;;;;;2.03;1.10;;;22.70;51.60;;;;;;5027468;28;20422;-87
2022/04/07 10:38:47;;;;;;;1.10;0.80;;;22.60;51.60;;;;;;5019432;28;20423;-86
2022/04/07 10:41:36;;;;;;;1.97;1.20;;;22.60;51.50;;;;;;5013434;28;20428;-88
2022/04/07 10:44:14;;;;;;;2.13;1.00;;;22.60;51.50;;;;;;5040982;28;20466;-86
2022/04/07 10:46:41;;;;;;;0.90;0.70;;;22.60;51.50;;;;;;5045045;28;20553;-86
2022/04/07 10:49:21;;;;;;;1.87;0.90;;;22.60;51.50;;;;;;5018360;28;20447;-86
2022/04/07 10:51:55;;;;;;;1.47;1.00;;;22.60;51.50;;;;;;5029762;28;20423;-86
2022/04/07 10:54:22;;;;;;;1.70;0.90;;;22.60;51.50;;;;;;5018508;28;20420;-87
2022/04/07 10:56:51;;;;;;;1.00;0.80;;;22.60;51.50;;;;;;5029257;28;20438;-87
2022/04/07 10:59:28;;;;;;;1.00;0.80;;;22.60;51.50;;;;;;5015422;28;20420;-86
2022/04/07 11:02:10;;;;;;;1.10;0.80;;;22.60;51.50;;;;;;5038358;28;20415;-86
2022/04/07 11:05:03;;;;;;;1.10;0.80;;;22.60;51.50;;;;;;5016458;28;20443;-86
2022/04/07 11:10:53;;;;;;;1.40;0.93;;;22.60;51.50;;;;;;5029942;28;20488;-87
2022/04/07 11:13:50;;;;;;;1.87;1.10;;;22.60;51.60;;;;;;5044186;28;20427;-87
2022/04/07 11:16:24;;;;;;;1.37;1.00;;;22.60;51.60;;;;;;5026224;28;20419;-86
2022/04/07 11:19:40;;;;;;;1.40;1.00;;;22.60;51.60;;;;;;5022661;28;20406;-87
2022/04/07 11:22:12;;;;;;;2.57;0.90;;;22.60;51.60;;;;;;4993332;28;20496;-87
2022/04/07 11:24:44;;;;;;;2.20;1.30;;;22.60;51.60;;;;;;5025738;28;20446;-87
2022/04/07 11:27:44;;;;;;;1.30;0.90;;;22.50;51.50;;;;;;5013909;28;20491;-87
2022/04/07 11:30:13;;;;;;;2.17;1.10;;;22.60;51.60;;;;;;5022951;28;20420;-87
2022/04/07 11:32:59;;;;;;;1.20;1.00;;;22.60;51.60;;;;;;5027134;28;20447;-87
2022/04/07 11:35:24;;;;;;;2.20;1.47;;;22.60;51.60;;;;;;5029088;28;20408;-88
2022/04/07 11:41:17;;;;;;;1.30;1.10;;;22.60;51.60;;;;;;5024245;28;20171;-88
2022/04/07 11:43:48;;;;;;;1.00;0.90;;;22.60;51.60;;;;;;5026745;28;20439;-88
2022/04/07 11:46:15;;;;;;;2.43;1.10;;;22.50;51.60;;;;;;5027346;28;20459;-88
2022/04/07 11:48:41;;;;;;;1.63;0.97;;;22.60;51.60;;;;;;5025554;28;20430;-88
2022/04/07 11:51:14;;;;;;;2.07;0.97;;;22.60;51.60;;;;;;5027327;28;20447;-89
2022/04/07 11:54:01;;;;;;;1.70;0.90;;;22.60;51.60;;;;;;5026445;28;20203;-88
2022/04/07 11:56:32;;;;;;;1.30;0.90;;;22.60;51.60;;;;;;5027684;28;20435;-88
2022/04/07 11:59:08;;;;;;;2.00;1.10;;;22.60;51.60;;;;;;5026566;28;20422;-87
2022/04/07 12:01:44;;;;;;;1.40;0.97;;;22.60;51.60;;;;;;5027921;28;20454;-87
2022/04/07 12:04:12;;;;;;;4.97;1.23;;;22.60;51.60;;;;;;5028091;28;20443;-88
2022/04/07 12:06:44;;;;;;;1.23;0.90;;;22.50;51.50;;;;;;5026244;28;20479;-88
2022/04/07 12:09:10;;;;;;;1.90;1.10;;;22.50;51.50;;;;;;5028812;28;20419;-88
2022/04/07 12:11:38;;;;;;;2.67;1.73;;;22.50;51.50;;;;;;5026396;28;20427;-88
2022/04/07 12:14:06;;;;;;;1.50;1.03;;;22.50;51.50;;;;;;5027807;28;20211;-88
2022/04/07 12:16:35;;;;;;;1.37;1.10;;;22.50;51.50;;;;;;5028921;28;20423;-88
2022/04/07 12:19:04;;;;;;;1.40;1.00;;;22.50;51.50;;;;;;5024690;28;20458;-88
2022/04/07 12:21:56;;;;;;;1.90;1.20;;;22.50;51.50;;;;;;5028972;28;20423;-88
2022/04/07 12:24:24;;;;;;;1.30;1.07;;;22.50;51.50;;;;;;5028689;28;20435;-88
2022/04/07 12:26:51;;;;;;;1.80;1.10;;;22.50;51.50;;;;;;5022671;28;20485;-88
2022/04/07 12:29:19;;;;;;;1.33;1.00;;;22.50;51.50;;;;;;5027765;28;20414;-88
2022/04/07 12:31:45;;;;;;;1.20;0.80;;;22.50;51.50;;;;;;5028511;28;20419;-88
2022/04/07 12:34:13;;;;;;;2.03;1.20;;;22.50;51.50;;;;;;5044362;28;20794;-87
2022/04/07 12:36:43;;;;;;;1.00;0.90;;;22.50;51.50;;;;;;5028537;28;20423;-87
2022/04/07 12:39:15;;;;;;;1.30;0.97;;;22.50;51.50;;;;;;5028715;28;20408;-87
2022/04/07 12:41:44;;;;;;;1.63;1.00;;;22.50;51.50;;;;;;5024549;28;20442;-87
2022/04/07 12:44:16;;;;;;;0.97;0.73;;;22.50;51.50;;;;;;5040054;28;20450;-87
2022/04/07 12:46:48;;;;;;;1.10;0.80;;;22.50;51.50;;;;;;5023329;28;20462;-88
2022/04/07 12:49:26;;;;;;;1.47;0.90;;;22.50;51.50;;;;;;5027879;28;20457;-88
2022/04/07 12:52:02;;;;;;;1.60;1.00;;;22.50;51.50;;;;;;5029976;28;20479;-87
2022/04/07 12:54:30;;;;;;;1.43;1.00;;;22.50;51.50;;;;;;5026858;28;20517;-88
2022/04/07 12:57:15;;;;;;;1.40;1.00;;;22.50;51.50;;;;;;5027804;28;20431;-87
2022/04/07 12:59:56;;;;;;;1.80;1.07;;;22.50;51.50;;;;;;5021129;28;20429;-88
2022/04/07 13:02:40;;;;;;;1.57;1.07;;;22.50;51.60;;;;;;5028508;28;20423;-87
2022/04/07 13:05:06;;;;;;;1.10;0.70;;;22.50;51.60;;;;;;5028708;28;20442;-87
2022/04/07 13:07:33;;;;;;;1.40;0.80;;;22.50;51.60;;;;;;5027555;28;20475;-87
2022/04/07 13:09:59;;;;;;;1.60;1.03;;;22.50;51.60;;;;;;5027821;28;20932;-88
2022/04/07 13:12:24;;;;;;;1.10;0.80;;;22.50;51.50;;;;;;5028029;28;20450;-87
2022/04/07 13:18:14;;;;;;;1.57;1.00;;;22.50;51.50;;;;;;5025144;28;20275;-86
2022/04/07 13:20:39;;;;;;;0.90;0.73;;;22.40;51.50;;;;;;5028353;28;20471;-86
2022/04/07 13:23:05;;;;;;;3.63;0.97;;;22.40;51.60;;;;;;5027788;28;20434;-86
2022/04/07 13:25:35;;;;;;;1.40;0.90;;;22.40;51.60;;;;;;5027767;28;20184;-87
2022/04/07 13:28:01;;;;;;;3.27;0.80;;;22.50;51.70;;;;;;5030750;28;20176;-87
2022/04/07 13:30:27;;;;;;;2.33;1.30;;;22.50;51.70;;;;;;5030086;28;20435;-86
2022/04/07 13:32:52;;;;;;;1.53;0.97;;;22.50;51.70;;;;;;5029440;28;20185;-85
2022/04/07 13:35:19;;;;;;;1.00;0.87;;;22.50;51.70;;;;;;5027976;28;20203;-86
2022/04/07 13:37:46;;;;;;;1.00;0.70;;;22.50;51.70;;;;;;5028097;28;20436;-86
2022/04/07 13:40:17;;;;;;;1.13;0.80;;;22.50;51.70;;;;;;5028832;28;20431;-86
2022/04/07 13:42:43;;;;;;;1.03;0.77;;;22.50;51.70;;;;;;5030501;28;20180;-87
2022/04/07 13:45:10;;;;;;;1.10;0.90;;;22.50;51.70;;;;;;5028845;28;20415;-86